createdAt,value
2018-08-12T00:02:14.925Z,14.60
2018-08-12T00:04:43.302Z,14.60
2018-08-12T00:07:11.646Z,14.60
2018-08-12T00:09:39.933Z,14.50
2018-08-12T00:12:08.191Z,14.50
2018-08-12T00:14:37.684Z,14.50
2018-08-12T00:17:06.035Z,14.50
2018-08-12T00:19:34.341Z,14.50
2018-08-12T00:22:02.691Z,14.40
2018-08-12T00:24:32.209Z,14.40
2018-08-12T00:27:00.507Z,14.40
2018-08-12T00:29:28.847Z,14.40
2018-08-12T00:31:57.264Z,14.40
2018-08-12T00:34:25.733Z,14.40
2018-08-12T00:36:54.030Z,14.40
2018-08-12T00:39:22.328Z,14.40
2018-08-12T00:41:50.628Z,14.40
2018-08-12T00:44:19.058Z,14.40
2018-08-12T00:46:47.366Z,14.50
2018-08-12T00:49:15.627Z,14.40
2018-08-12T00:51:43.917Z,14.50
2018-08-12T00:54:12.310Z,14.50
2018-08-12T00:56:41.289Z,14.50
2018-08-12T00:59:09.508Z,14.60
2018-08-12T01:01:37.896Z,14.60
2018-08-12T01:04:06.457Z,14.70
2018-08-12T01:06:34.733Z,14.70
2018-08-12T01:09:03.432Z,14.70
2018-08-12T01:11:31.914Z,14.70
2018-08-12T01:14:00.333Z,14.70
2018-08-12T01:16:28.628Z,14.70
2018-08-12T01:18:56.993Z,14.70
2018-08-12T01:21:25.422Z,14.70
2018-08-12T01:23:53.867Z,14.80
2018-08-12T01:26:22.210Z,14.80
2018-08-12T01:28:50.530Z,14.80
2018-08-12T01:31:18.891Z,14.90
2018-08-12T01:33:47.484Z,14.90
2018-08-12T01:36:15.797Z,14.80
2018-08-12T01:38:44.109Z,14.80
2018-08-12T01:41:12.383Z,14.90
2018-08-12T01:43:40.802Z,14.90
2018-08-12T01:46:09.121Z,14.90
2018-08-12T01:48:37.377Z,14.90
2018-08-12T01:51:05.714Z,15.00
2018-08-12T01:53:35.272Z,15.00
2018-08-12T01:56:03.606Z,14.90
2018-08-12T01:58:31.932Z,14.90
2018-08-12T02:01:00.279Z,14.70
2018-08-12T02:03:28.625Z,14.60
2018-08-12T02:05:56.906Z,14.60
2018-08-12T02:08:25.230Z,14.60
2018-08-12T02:10:53.562Z,14.50
2018-08-12T02:13:21.990Z,14.60
2018-08-12T02:15:50.347Z,14.60
2018-08-12T02:18:18.648Z,14.60
2018-08-12T02:20:46.901Z,14.70
2018-08-12T02:23:15.200Z,14.70
2018-08-12T02:25:43.429Z,14.70
2018-08-12T02:28:11.748Z,14.70
2018-08-12T02:30:40.005Z,14.70
2018-08-12T02:33:08.924Z,14.80
2018-08-12T02:35:37.208Z,14.80
2018-08-12T02:38:05.505Z,14.80
2018-08-12T02:40:33.771Z,14.90
2018-08-12T02:43:02.012Z,14.90
2018-08-12T02:45:30.435Z,14.90
2018-08-12T02:47:58.742Z,14.90
2018-08-12T02:50:27.047Z,14.90
2018-08-12T02:52:55.280Z,15.00
2018-08-12T02:55:23.539Z,15.00
2018-08-12T02:57:51.776Z,15.00
2018-08-12T03:00:23.081Z,15.00
2018-08-12T03:02:51.312Z,15.10
2018-08-12T03:05:19.702Z,15.10
2018-08-12T03:07:47.931Z,15.10
2018-08-12T03:10:16.211Z,15.10
2018-08-12T03:12:44.495Z,15.10
2018-08-12T03:15:13.013Z,15.10
2018-08-12T03:17:41.329Z,15.10
2018-08-12T03:20:11.072Z,15.10
2018-08-12T03:22:39.332Z,15.10
2018-08-12T03:25:09.171Z,15.10
2018-08-12T03:27:37.489Z,15.20
2018-08-12T03:30:06.631Z,15.20
2018-08-12T03:32:34.894Z,15.20
2018-08-12T03:35:04.271Z,15.30
2018-08-12T03:37:32.496Z,15.30
2018-08-12T03:40:00.748Z,15.30
2018-08-12T03:42:28.999Z,15.30
2018-08-12T03:45:00.476Z,15.30
2018-08-12T03:47:28.773Z,15.30
2018-08-12T03:49:57.079Z,15.40
2018-08-12T03:52:25.333Z,15.40
2018-08-12T03:54:53.782Z,15.40
2018-08-12T03:57:22.060Z,15.40
2018-08-12T03:59:50.268Z,15.40
2018-08-12T04:02:18.614Z,15.40
2018-08-12T04:04:47.047Z,15.40
2018-08-12T04:07:15.338Z,15.50
2018-08-12T04:09:43.601Z,15.50
2018-08-12T04:12:11.865Z,15.50
2018-08-12T04:14:40.205Z,15.50
2018-08-12T04:17:08.660Z,15.50
2018-08-12T04:19:36.910Z,15.50
2018-08-12T04:22:05.204Z,15.50
2018-08-12T04:24:34.499Z,15.60
2018-08-12T04:27:02.802Z,15.60
2018-08-12T04:29:31.103Z,15.60
2018-08-12T04:31:59.594Z,15.60
2018-08-12T04:34:28.044Z,15.60
2018-08-12T04:36:56.517Z,15.60
2018-08-12T04:39:24.830Z,15.60
2018-08-12T04:41:53.251Z,15.60
2018-08-12T04:44:21.537Z,15.60
2018-08-12T04:46:49.807Z,15.60
2018-08-12T04:49:18.735Z,15.60
2018-08-12T04:51:46.942Z,15.60
2018-08-12T04:54:15.228Z,15.60
2018-08-12T04:56:43.505Z,15.60
2018-08-12T04:59:11.751Z,15.60
2018-08-12T05:01:40.003Z,15.60
2018-08-12T05:04:09.989Z,15.60
2018-08-12T05:06:38.245Z,15.60
2018-08-12T05:09:08.828Z,15.70
2018-08-12T05:11:37.314Z,15.70
2018-08-12T05:14:05.980Z,15.70
2018-08-12T05:16:34.317Z,15.70
2018-08-12T05:19:02.624Z,15.70
2018-08-12T05:21:30.853Z,15.70
2018-08-12T05:23:59.261Z,15.80
2018-08-12T05:26:27.645Z,15.80
2018-08-12T05:28:56.094Z,15.80
2018-08-12T05:31:24.398Z,15.80
2018-08-12T05:33:52.834Z,15.80
2018-08-12T05:36:21.171Z,15.80
2018-08-12T05:38:49.431Z,15.80
2018-08-12T05:41:17.860Z,15.80
2018-08-12T05:43:46.314Z,15.90
2018-08-12T05:46:14.633Z,15.90
2018-08-12T05:48:42.927Z,15.90
2018-08-12T05:51:11.319Z,15.90
2018-08-12T05:53:39.591Z,16.00
2018-08-12T05:56:07.878Z,16.00
2018-08-12T05:58:36.243Z,16.00
2018-08-12T06:01:04.515Z,16.00
2018-08-12T06:03:32.953Z,16.00
2018-08-12T06:06:01.227Z,16.00
2018-08-12T06:08:29.498Z,16.10
2018-08-12T06:10:57.781Z,16.10
2018-08-12T06:13:26.365Z,16.10
2018-08-12T06:15:54.696Z,16.20
2018-08-12T06:18:23.024Z,16.20
2018-08-12T06:20:51.358Z,16.20
2018-08-12T06:23:19.738Z,16.30
2018-08-12T06:25:48.042Z,16.30
2018-08-12T06:28:16.360Z,16.30
2018-08-12T06:30:44.626Z,16.40
2018-08-12T06:33:13.023Z,16.40
2018-08-12T06:35:41.336Z,16.50
2018-08-12T06:38:09.615Z,16.50
2018-08-12T06:40:37.916Z,16.60
2018-08-12T06:43:06.247Z,16.70
2018-08-12T06:45:34.620Z,16.80
2018-08-12T06:48:02.870Z,16.90
2018-08-12T06:50:31.187Z,17.00
2018-08-12T06:52:59.451Z,17.10
2018-08-12T06:55:27.956Z,17.10
2018-08-12T06:57:56.238Z,17.20
2018-08-12T07:00:24.669Z,17.40
2018-08-12T07:02:52.968Z,17.40
2018-08-12T07:05:21.455Z,17.40
2018-08-12T07:07:49.736Z,17.40
2018-08-12T07:10:18.030Z,17.40
2018-08-12T07:12:46.365Z,17.50
2018-08-12T07:15:16.405Z,17.50
2018-08-12T07:17:45.642Z,17.60
2018-08-12T07:20:14.409Z,17.70
2018-08-12T07:22:42.862Z,17.80
2018-08-12T07:25:13.593Z,17.80
2018-08-12T07:27:42.714Z,17.90
2018-08-12T07:30:12.927Z,17.90
2018-08-12T07:32:41.354Z,18.00
2018-08-12T07:35:10.379Z,18.00
2018-08-12T07:37:39.062Z,18.10
2018-08-12T07:40:13.806Z,18.10
2018-08-12T07:42:42.176Z,18.10
2018-08-12T07:45:12.322Z,18.20
2018-08-12T07:47:41.198Z,18.30
2018-08-12T07:50:10.189Z,18.30
2018-08-12T07:52:38.825Z,18.40
2018-08-12T07:55:09.369Z,18.60
2018-08-12T07:57:37.663Z,18.80
2018-08-12T08:00:08.042Z,18.90
2018-08-12T08:02:36.308Z,18.90
2018-08-12T08:05:05.231Z,19.00
2018-08-12T08:07:33.716Z,19.00
2018-08-12T08:10:01.959Z,19.10
2018-08-12T08:12:30.342Z,19.10
2018-08-12T08:14:58.624Z,19.20
2018-08-12T08:17:26.917Z,19.30
2018-08-12T08:19:55.337Z,19.40
2018-08-12T08:22:23.558Z,19.50
2018-08-12T08:24:52.194Z,19.60
2018-08-12T08:27:20.586Z,19.70
2018-08-12T08:29:48.898Z,19.80
2018-08-12T08:32:17.361Z,19.90
2018-08-12T08:34:45.752Z,20.00
2018-08-12T08:37:14.068Z,20.10
2018-08-12T08:39:42.431Z,20.20
2018-08-12T08:42:10.797Z,20.30
2018-08-12T08:44:39.570Z,20.40
2018-08-12T08:47:07.932Z,20.40
2018-08-12T08:49:36.221Z,20.40
2018-08-12T08:52:04.520Z,20.40
2018-08-12T08:54:33.180Z,20.40
2018-08-12T08:57:01.700Z,20.40
2018-08-12T08:59:30.526Z,20.50
2018-08-12T09:01:58.894Z,20.70
2018-08-12T09:04:27.328Z,20.80
2018-08-12T09:06:55.653Z,21.00
2018-08-12T09:09:24.482Z,21.20
2018-08-12T09:11:52.763Z,21.20
2018-08-12T09:14:21.264Z,21.30
2018-08-12T09:16:49.620Z,21.30
2018-08-12T09:19:17.958Z,21.30
2018-08-12T09:21:46.264Z,21.20
2018-08-12T09:24:14.811Z,21.20
2018-08-12T09:26:43.142Z,21.30
2018-08-12T09:29:11.428Z,21.40
2018-08-12T09:31:39.735Z,21.40
2018-08-12T09:34:08.130Z,21.50
2018-08-12T09:36:37.134Z,21.50
2018-08-12T09:39:08.219Z,21.60
2018-08-12T09:41:36.521Z,21.60
2018-08-12T09:44:04.885Z,21.70
2018-08-12T09:46:33.234Z,21.70
2018-08-12T09:49:01.785Z,21.80
2018-08-12T09:51:30.373Z,21.90
2018-08-12T09:53:59.109Z,21.90
2018-08-12T09:56:27.553Z,21.90
2018-08-12T09:58:55.954Z,22.00
2018-08-12T10:01:24.324Z,22.10
2018-08-12T10:03:52.739Z,22.10
2018-08-12T10:06:21.742Z,22.20
2018-08-12T10:08:50.015Z,22.10
2018-08-12T10:11:18.369Z,22.10
2018-08-12T10:13:46.828Z,22.10
2018-08-12T10:16:15.190Z,22.20
2018-08-12T10:18:43.570Z,22.20
2018-08-12T10:21:11.900Z,22.20
2018-08-12T10:23:40.377Z,22.20
2018-08-12T10:26:08.711Z,22.20
2018-08-12T10:28:37.047Z,22.20
2018-08-12T10:33:45.886Z,22.20
2018-08-12T10:36:14.360Z,22.20
2018-08-12T10:38:42.685Z,22.10
2018-08-12T10:41:11.010Z,22.20
2018-08-12T10:43:39.467Z,22.20
2018-08-12T10:46:07.715Z,22.30
2018-08-12T10:48:36.014Z,22.30
2018-08-12T10:51:04.341Z,22.40
2018-08-12T10:53:33.746Z,22.50
2018-08-12T10:56:02.110Z,22.60
2018-08-12T10:58:30.467Z,22.70
2018-08-12T11:00:58.833Z,22.60
2018-08-12T11:03:27.303Z,22.60
2018-08-12T11:05:55.609Z,22.50
2018-08-12T11:08:23.890Z,22.50
2018-08-12T11:10:52.293Z,22.50
2018-08-12T11:13:20.782Z,22.60
2018-08-12T11:15:49.096Z,22.70
2018-08-12T11:18:18.229Z,22.70
2018-08-12T11:20:46.535Z,22.80
2018-08-12T11:23:14.884Z,22.80
2018-08-12T11:25:43.286Z,22.90
2018-08-12T11:28:11.588Z,23.00
2018-08-12T11:30:39.905Z,23.10
2018-08-12T11:33:08.335Z,23.10
2018-08-12T11:35:36.624Z,23.10
2018-08-12T11:38:04.980Z,23.00
2018-08-12T11:40:33.251Z,23.10
2018-08-12T11:43:01.534Z,23.10
2018-08-12T11:45:29.961Z,23.10
2018-08-12T11:47:58.269Z,23.20
2018-08-12T11:50:26.606Z,23.30
2018-08-12T11:52:54.912Z,23.40
2018-08-12T11:55:23.365Z,23.60
2018-08-12T11:57:51.574Z,23.70
2018-08-12T12:00:21.167Z,23.80
2018-08-12T12:02:50.605Z,23.90
2018-08-12T12:05:19.337Z,23.90
2018-08-12T12:07:48.158Z,24.00
2018-08-12T12:10:18.987Z,24.00
2018-08-12T12:12:48.664Z,24.00
2018-08-12T12:15:17.546Z,24.00
2018-08-12T12:17:46.530Z,24.00
2018-08-12T12:20:15.941Z,23.90
2018-08-12T12:22:44.964Z,23.90
2018-08-12T12:25:14.705Z,24.00
2018-08-12T12:27:43.434Z,24.00
2018-08-12T12:32:56.287Z,24.30
2018-08-12T12:35:24.665Z,24.40
2018-08-12T12:37:52.953Z,24.40
2018-08-12T12:40:21.232Z,24.50
2018-08-12T12:42:49.656Z,24.50
2018-08-12T12:45:18.314Z,24.50
2018-08-12T12:47:46.629Z,24.40
2018-08-12T12:50:18.646Z,24.50
2018-08-12T12:52:48.563Z,24.50
2018-08-12T12:55:19.927Z,24.50
2018-08-12T12:57:48.398Z,24.50
2018-08-12T13:00:17.987Z,24.50
2018-08-12T13:02:46.466Z,24.60
2018-08-12T13:05:16.182Z,24.60
2018-08-12T13:07:45.742Z,24.60
2018-08-12T13:10:15.003Z,24.60
2018-08-12T13:12:43.471Z,24.70
2018-08-12T13:15:12.644Z,24.70
2018-08-12T13:17:41.210Z,24.90
2018-08-12T13:20:12.522Z,24.90
2018-08-12T13:22:40.969Z,24.90
2018-08-12T13:25:12.368Z,24.90
2018-08-12T13:27:41.276Z,25.00
2018-08-12T13:30:10.731Z,25.10
2018-08-12T13:32:38.995Z,25.20
2018-08-12T13:35:08.419Z,25.30
2018-08-12T13:37:37.290Z,25.30
2018-08-12T13:40:07.259Z,25.30
2018-08-12T13:42:35.970Z,25.40
2018-08-12T13:45:04.850Z,25.50
2018-08-12T13:47:33.125Z,25.60
2018-08-12T13:50:02.668Z,25.60
2018-08-12T13:52:30.952Z,25.50
2018-08-12T13:54:59.266Z,25.40
2018-08-12T13:57:27.616Z,25.40
2018-08-12T13:59:55.900Z,25.40
2018-08-12T14:02:24.270Z,25.50
2018-08-12T14:04:52.835Z,25.50
2018-08-12T14:07:21.097Z,25.40
2018-08-12T14:09:49.412Z,25.40
2018-08-12T14:12:17.694Z,25.40
2018-08-12T14:14:46.048Z,25.40
2018-08-12T14:17:14.371Z,25.40
2018-08-12T14:19:42.667Z,25.50
2018-08-12T14:25:05.303Z,25.60
2018-08-12T14:27:33.629Z,25.50
2018-08-12T14:30:02.695Z,25.60
2018-08-12T14:32:31.332Z,25.70
2018-08-12T14:35:01.085Z,25.90
2018-08-12T14:37:29.699Z,26.00
2018-08-12T14:39:58.441Z,26.10
2018-08-12T14:42:27.078Z,26.20
2018-08-12T14:44:55.659Z,26.20
2018-08-12T14:47:24.089Z,26.20
2018-08-12T14:49:52.523Z,26.10
2018-08-12T14:52:20.976Z,26.00
2018-08-12T14:54:49.497Z,26.00
2018-08-12T14:57:17.812Z,26.10
2018-08-12T14:59:46.220Z,26.10
2018-08-12T15:02:14.550Z,26.10
2018-08-12T15:04:42.962Z,26.00
2018-08-12T15:07:11.338Z,26.00
2018-08-12T15:09:39.704Z,26.00
2018-08-12T15:12:08.016Z,26.00
2018-08-12T15:14:36.649Z,26.00
2018-08-12T15:17:05.035Z,26.00
2018-08-12T15:19:33.355Z,25.90
2018-08-12T15:22:01.717Z,25.90
2018-08-12T15:24:30.290Z,25.70
2018-08-12T15:26:58.748Z,25.70
2018-08-12T15:29:27.235Z,25.70
2018-08-12T15:31:55.539Z,25.70
2018-08-12T15:34:23.893Z,25.70
2018-08-12T15:36:52.243Z,25.60
2018-08-12T15:39:20.613Z,25.60
2018-08-12T15:41:49.129Z,25.60
2018-08-12T15:44:18.679Z,25.60
2018-08-12T15:46:47.571Z,25.60
2018-08-12T15:49:16.195Z,25.60
2018-08-12T15:51:44.645Z,25.60
2018-08-12T15:54:13.752Z,25.50
2018-08-12T15:56:42.255Z,25.50
2018-08-12T15:59:11.020Z,25.50
2018-08-12T16:01:40.140Z,25.50
2018-08-12T16:04:08.574Z,25.50
2018-08-12T16:06:36.904Z,25.50
2018-08-12T16:09:07.939Z,25.40
2018-08-12T16:11:36.210Z,25.40
2018-08-12T16:14:04.837Z,25.40
2018-08-12T16:16:33.144Z,25.40
2018-08-12T16:19:01.538Z,25.40
2018-08-12T16:21:29.835Z,25.30
2018-08-12T16:23:58.409Z,25.20
2018-08-12T16:26:26.677Z,25.20
2018-08-12T16:28:55.033Z,25.20
2018-08-12T16:31:23.403Z,25.20
2018-08-12T16:33:51.909Z,25.20
2018-08-12T16:36:20.524Z,25.10
2018-08-12T16:38:48.871Z,25.10
2018-08-12T16:41:17.197Z,25.10
2018-08-12T16:43:45.569Z,25.00
2018-08-12T16:46:13.852Z,25.00
2018-08-12T16:48:42.210Z,25.10
2018-08-12T16:51:10.486Z,25.10
2018-08-12T16:53:39.093Z,25.00
2018-08-12T16:56:07.397Z,25.00
2018-08-12T16:58:35.786Z,25.00
2018-08-12T17:01:04.171Z,24.90
2018-08-12T17:03:32.700Z,24.90
2018-08-12T17:06:01.078Z,24.90
2018-08-12T17:11:30.439Z,24.80
2018-08-12T17:13:58.893Z,24.80
2018-08-12T17:16:27.219Z,24.70
2018-08-12T17:18:55.518Z,24.70
2018-08-12T17:21:24.206Z,24.70
2018-08-12T17:23:53.304Z,24.60
2018-08-12T17:26:21.864Z,24.60
2018-08-12T17:28:50.905Z,24.60
2018-08-12T17:31:20.226Z,24.60
2018-08-12T17:33:48.970Z,24.60
2018-08-12T17:36:17.829Z,24.60
2018-08-12T17:38:46.618Z,24.60
2018-08-12T17:41:14.921Z,24.50
2018-08-12T17:43:43.314Z,24.50
2018-08-12T17:46:11.582Z,24.40
2018-08-12T17:48:39.837Z,24.30
2018-08-12T17:51:08.151Z,24.30
2018-08-12T17:53:36.663Z,24.20
2018-08-12T17:56:04.912Z,24.10
2018-08-12T17:58:33.422Z,24.00
2018-08-12T18:01:01.794Z,23.90
2018-08-12T18:03:30.155Z,23.80
2018-08-12T18:05:58.491Z,23.80
2018-08-12T18:08:26.998Z,23.70
2018-08-12T18:10:55.492Z,23.70
2018-08-12T18:13:24.389Z,23.70
2018-08-12T18:15:53.907Z,23.70
2018-08-12T18:18:22.871Z,23.70
2018-08-12T18:20:51.855Z,23.70
2018-08-12T18:23:20.842Z,23.60
2018-08-12T18:25:50.311Z,23.50
2018-08-12T18:28:18.970Z,23.50
2018-08-12T18:30:47.924Z,23.50
2018-08-12T18:33:16.429Z,23.50
2018-08-12T18:35:44.726Z,23.50
2018-08-12T18:38:13.042Z,23.40
2018-08-12T18:40:41.836Z,23.30
2018-08-12T18:43:11.055Z,23.30
2018-08-12T18:45:40.319Z,23.30
2018-08-12T18:48:09.489Z,23.20
2018-08-12T18:50:38.373Z,23.20
2018-08-12T18:53:07.821Z,23.10
2018-08-12T18:55:37.528Z,23.10
2018-08-12T18:58:05.812Z,23.10
2018-08-12T19:00:34.066Z,23.10
2018-08-12T19:03:02.374Z,23.00
2018-08-12T19:05:30.780Z,23.00
2018-08-12T19:07:59.217Z,23.00
2018-08-12T19:10:27.728Z,22.90
2018-08-12T19:12:55.982Z,22.90
2018-08-12T19:15:24.451Z,22.80
2018-08-12T19:17:52.759Z,22.80
2018-08-12T19:20:21.244Z,22.80
2018-08-12T19:22:49.537Z,22.70
2018-08-12T19:25:17.926Z,22.60
2018-08-12T19:27:46.239Z,22.50
2018-08-12T19:30:14.544Z,22.30
2018-08-12T19:32:42.877Z,22.10
2018-08-12T19:35:12.829Z,22.00
2018-08-12T19:37:41.200Z,22.00
2018-08-12T19:40:09.774Z,21.90
2018-08-12T19:42:38.260Z,21.90
2018-08-12T19:45:08.430Z,22.00
2018-08-12T19:47:36.773Z,22.00
2018-08-12T19:50:05.555Z,22.00
2018-08-12T19:52:33.832Z,22.00
2018-08-12T19:55:02.092Z,22.10
2018-08-12T19:57:30.374Z,22.10
2018-08-12T19:59:58.796Z,22.10
2018-08-12T20:02:27.067Z,22.10
2018-08-12T20:04:56.559Z,22.00
2018-08-12T20:07:24.941Z,22.00
2018-08-12T20:09:53.308Z,22.00
2018-08-12T20:12:21.696Z,22.00
2018-08-12T20:14:50.029Z,22.00
2018-08-12T20:17:18.275Z,22.00
2018-08-12T20:19:46.560Z,21.90
2018-08-12T20:22:16.000Z,21.90
2018-08-12T20:24:44.952Z,21.90
2018-08-12T20:27:13.512Z,21.90
2018-08-12T20:29:42.006Z,21.90
2018-08-12T20:32:10.420Z,21.90
2018-08-12T20:34:38.880Z,21.90
2018-08-12T20:37:07.119Z,21.90
2018-08-12T20:39:35.479Z,21.90
2018-08-12T20:42:03.684Z,21.90
2018-08-12T20:44:32.223Z,21.90
2018-08-12T20:47:00.534Z,21.90
2018-08-12T20:49:29.072Z,21.90
2018-08-12T20:51:57.499Z,21.80
2018-08-12T20:54:25.875Z,21.80
2018-08-12T20:56:54.294Z,21.90
2018-08-12T20:59:22.670Z,21.90
2018-08-12T21:01:51.044Z,21.90
2018-08-12T21:04:19.440Z,21.80
2018-08-12T21:06:47.707Z,21.80
2018-08-12T21:09:16.045Z,21.80
2018-08-12T21:11:44.343Z,21.80
2018-08-12T21:14:12.650Z,21.80
2018-08-12T21:16:40.945Z,21.70
2018-08-12T21:19:09.318Z,21.70
2018-08-12T21:21:37.635Z,21.70
2018-08-12T21:24:06.110Z,21.70
2018-08-12T21:26:35.212Z,21.80
2018-08-12T21:29:03.559Z,21.70
2018-08-12T21:31:31.954Z,21.70
2018-08-12T21:34:01.309Z,21.70
2018-08-12T21:36:29.781Z,21.70
2018-08-12T21:38:58.113Z,21.60
2018-08-12T21:41:26.460Z,21.60
2018-08-12T21:43:58.775Z,21.60
2018-08-12T21:46:27.047Z,21.60
2018-08-12T21:48:55.385Z,21.60
2018-08-12T21:51:23.703Z,21.60
2018-08-12T21:53:52.134Z,21.60
2018-08-12T21:56:20.466Z,21.60
2018-08-12T21:58:48.773Z,21.60
2018-08-12T22:01:17.171Z,21.60
2018-08-12T22:03:46.676Z,21.60
2018-08-12T22:06:15.005Z,21.60
2018-08-12T22:08:43.304Z,21.60
2018-08-12T22:11:11.599Z,21.50
2018-08-12T22:13:39.923Z,21.50
2018-08-12T22:16:08.223Z,21.50
2018-08-12T22:18:36.513Z,21.50
2018-08-12T22:21:04.813Z,21.50
2018-08-12T22:23:33.167Z,21.50
2018-08-12T22:26:01.470Z,21.40
2018-08-12T22:28:29.871Z,21.40
2018-08-12T22:30:58.205Z,21.30
2018-08-12T22:33:26.484Z,21.30
2018-08-12T22:35:54.768Z,21.30
2018-08-12T22:38:23.114Z,21.20
2018-08-12T22:40:51.547Z,21.20
2018-08-12T22:43:21.091Z,21.20
2018-08-12T22:45:49.344Z,21.10
2018-08-12T22:48:17.650Z,21.10
2018-08-12T22:50:45.962Z,21.10
2018-08-12T22:53:14.246Z,21.10
2018-08-12T22:55:42.574Z,21.10
2018-08-12T22:58:10.886Z,21.20
2018-08-12T23:00:39.548Z,21.20
2018-08-12T23:03:07.889Z,21.20
2018-08-12T23:05:36.127Z,21.20
2018-08-12T23:08:08.519Z,21.30
2018-08-12T23:10:37.235Z,21.30
2018-08-12T23:13:05.612Z,21.30
2018-08-12T23:16:43.720Z,21.30
2018-08-12T23:19:11.932Z,21.30
2018-08-12T23:21:40.210Z,21.30
2018-08-12T23:24:08.618Z,21.30
2018-08-12T23:26:36.915Z,21.30
2018-08-12T23:29:05.272Z,21.30
2018-08-12T23:31:33.546Z,21.30
2018-08-12T23:34:02.936Z,21.30
2018-08-12T23:36:31.245Z,21.30
2018-08-12T23:38:59.492Z,21.40
2018-08-12T23:41:27.740Z,21.30
2018-08-12T23:43:56.055Z,21.30
2018-08-12T23:46:24.276Z,21.30
2018-08-12T23:48:52.667Z,21.20
2018-08-12T23:51:20.974Z,21.20
2018-08-12T23:53:49.436Z,21.20
2018-08-12T23:56:17.682Z,21.20
2018-08-12T23:58:45.916Z,21.20
